Time;durP1;ratioP1;P1;durP2;ratioP2;P2;SDS_P1;SDS_P2;PMS_P1;PMS_P2;Temp;Humidity;BMP_temperature;BMP_pressure;BME280_temperature;BME280_humidity;BME280_pressure;Samples;Min_cycle;Max_cycle;Signal;HPM_P1;HPM_P2
2022/03/17 00:01:03;;;;;;;19.13;10.73;;;;;;;-5.02;100.00;102496.98;1687764;84;21488;-62
2022/03/17 00:03:30;;;;;;;16.40;10.10;;;;;;;-5.04;100.00;102493.14;1696719;84;21067;-61
2022/03/17 00:05:57;;;;;;;22.97;11.23;;;;;;;-4.97;100.00;102490.54;1697890;84;20991;-61
2022/03/17 00:08:24;;;;;;;18.80;10.73;;;;;;;-4.99;100.00;102484.58;1699225;84;21682;-62
2022/03/17 00:10:51;;;;;;;16.90;10.07;;;;;;;-4.97;100.00;102481.75;1696837;84;20968;-61
2022/03/17 00:13:19;;;;;;;22.20;11.30;;;;;;;-4.98;100.00;102486.31;1687796;84;20999;-61
2022/03/17 00:15:46;;;;;;;22.00;10.80;;;;;;;-4.99;100.00;102487.94;1706541;83;21582;-62
2022/03/17 00:18:13;;;;;;;18.80;11.00;;;;;;;-5.00;100.00;102492.91;1705923;83;21495;-61
2022/03/17 00:20:41;;;;;;;18.33;10.90;;;;;;;-4.96;100.00;102488.52;1705904;83;20976;-62
2022/03/17 00:23:08;;;;;;;18.30;11.23;;;;;;;-5.01;100.00;102487.00;1707928;83;21031;-62
2022/03/17 00:25:35;;;;;;;20.73;11.00;;;;;;;-4.99;100.00;102490.85;1706130;83;21046;-62
2022/03/17 00:28:03;;;;;;;19.27;11.43;;;;;;;-4.99;100.00;102487.94;1705618;83;21514;-61
2022/03/17 00:30:30;;;;;;;20.03;10.40;;;;;;;-4.98;100.00;102490.09;1708018;83;20972;-62
2022/03/17 00:32:58;;;;;;;20.27;11.13;;;;;;;-5.05;100.00;102492.65;1706699;82;21082;-61
2022/03/17 00:35:38;;;;;;;20.63;10.67;;;;;;;-5.02;100.00;102484.44;1705264;83;21054;-62
2022/03/17 00:38:11;;;;;;;20.27;11.07;;;;;;;-5.11;100.00;102488.56;1705138;83;21011;-62
2022/03/17 00:40:41;;;;;;;18.57;10.57;;;;;;;-5.06;100.00;102484.66;1706517;83;20951;-62
2022/03/17 00:43:12;;;;;;;21.60;11.23;;;;;;;-5.12;100.00;102480.18;1708121;83;21460;-61
2022/03/17 00:45:43;;;;;;;19.30;9.93;;;;;;;-5.07;100.00;102484.17;1706992;83;20979;-62
2022/03/17 00:48:11;;;;;;;17.53;9.73;;;;;;;-5.14;100.00;102485.52;1706337;83;20995;-62
2022/03/17 00:50:38;;;;;;;19.20;10.53;;;;;;;-5.09;100.00;102480.35;1708239;83;21019;-63
2022/03/17 00:53:05;;;;;;;17.83;10.03;;;;;;;-5.07;100.00;102485.42;1705653;83;21542;-61
2022/03/17 00:55:32;;;;;;;19.50;10.93;;;;;;;-5.11;100.00;102486.05;1705938;83;21058;-61
2022/03/17 00:57:59;;;;;;;19.67;10.53;;;;;;;-5.14;100.00;102487.17;1708073;83;21038;-62
2022/03/17 01:00:28;;;;;;;22.40;10.87;;;;;;;-5.13;100.00;102484.75;1705749;83;21031;-61
2022/03/17 01:02:57;;;;;;;20.50;10.17;;;;;;;-5.25;100.00;102492.50;1721272;83;21574;-61
2022/03/17 01:05:25;;;;;;;18.50;10.47;;;;;;;-5.31;100.00;102483.75;1720665;83;21554;-62
2022/03/17 01:07:55;;;;;;;16.37;9.77;;;;;;;-5.29;100.00;102490.97;1704505;83;21354;-62
2022/03/17 01:10:24;;;;;;;20.20;10.00;;;;;;;-5.34;100.00;102491.14;1681108;84;21550;-61
2022/03/17 01:12:52;;;;;;;20.03;10.63;;;;;;;-5.25;100.00;102492.50;1691218;84;21046;-61
2022/03/17 01:15:21;;;;;;;20.20;10.50;;;;;;;-5.26;100.00;102490.75;1690605;84;21066;-62
2022/03/17 01:17:50;;;;;;;20.33;10.60;;;;;;;-5.26;100.00;102499.54;1696592;84;21594;-62
2022/03/17 01:20:16;;;;;;;18.83;10.80;;;;;;;-5.24;100.00;102495.46;1698858;84;20976;-62
2022/03/17 01:22:45;;;;;;;20.87;10.13;;;;;;;-5.20;100.00;102495.23;1698684;84;21075;-61
2022/03/17 01:25:12;;;;;;;21.77;11.33;;;;;;;-5.33;100.00;102493.73;1695972;83;21048;-61
2022/03/17 01:27:39;;;;;;;20.57;10.97;;;;;;;-5.34;100.00;102496.16;1683723;85;21026;-61
2022/03/17 01:30:09;;;;;;;17.20;9.70;;;;;;;-5.39;100.00;102497.18;1683849;85;21023;-61
2022/03/17 01:32:38;;;;;;;22.33;11.07;;;;;;;-5.39;100.00;102488.39;1684226;85;21019;-60
2022/03/17 01:35:08;;;;;;;16.80;10.40;;;;;;;-5.39;100.00;102489.66;1684022;85;21528;-61
2022/03/17 01:37:36;;;;;;;17.60;9.73;;;;;;;-5.33;100.00;102486.58;1684080;85;21027;-60
2022/03/17 01:40:04;;;;;;;21.77;10.77;;;;;;;-5.37;100.00;102489.34;1683865;85;21020;-61
2022/03/17 01:42:32;;;;;;;23.13;11.17;;;;;;;-5.35;100.00;102490.66;1683965;85;21043;-61
2022/03/17 01:45:00;;;;;;;22.93;11.70;;;;;;;-5.44;100.00;102489.38;1683555;85;21091;-60
2022/03/17 01:47:28;;;;;;;22.03;11.50;;;;;;;-5.46;100.00;102492.20;1683369;85;21086;-63
2022/03/17 01:50:02;;;;;;;22.50;10.50;;;;;;;-5.49;100.00;102489.95;1683871;85;21117;-62
2022/03/17 01:52:29;;;;;;;;;;;;;;;-5.46;100.00;102493.86;1686157;84;21067;-61
2022/03/17 01:54:56;;;;;;;18.37;10.37;;;;;;;-5.46;100.00;102490.09;1683659;85;20122;-62
2022/03/17 01:57:24;;;;;;;21.40;10.50;;;;;;;-5.50;100.00;102490.70;1683650;85;21043;-61
2022/03/17 01:59:53;;;;;;;22.57;11.83;;;;;;;-5.52;100.00;102491.88;1683947;85;20991;-61
2022/03/17 02:02:21;;;;;;;20.87;10.63;;;;;;;-5.56;100.00;102485.36;1683535;85;21015;-61
2022/03/17 02:04:49;;;;;;;22.13;11.30;;;;;;;-5.56;100.00;102491.23;1683315;85;21912;-64
2022/03/17 02:07:17;;;;;;;20.73;10.67;;;;;;;-5.55;100.00;102494.64;1683746;85;21015;-61
2022/03/17 02:09:48;;;;;;;21.20;11.47;;;;;;;-5.59;100.00;102498.62;1683359;85;21078;-62
2022/03/17 02:15:08;;;;;;;20.53;10.73;;;;;;;-5.75;100.00;102501.08;1685285;84;21602;-63
2022/03/17 02:17:39;;;;;;;19.20;10.47;;;;;;;-5.79;100.00;102500.44;1692496;85;21106;-61
2022/03/17 02:20:10;;;;;;;19.37;10.77;;;;;;;-5.76;100.00;102501.45;1692499;85;21071;-62
2022/03/17 02:22:46;;;;;;;20.67;11.53;;;;;;;-5.74;100.00;102506.55;1692489;85;21042;-61
2022/03/17 02:25:35;;;;;;;19.30;11.20;;;;;;;-5.77;100.00;102506.40;1692610;85;21558;-62
2022/03/17 02:28:06;;;;;;;20.10;10.50;;;;;;;-5.85;100.00;102503.06;1692894;84;21530;-61
2022/03/17 02:30:37;;;;;;;23.20;11.67;;;;;;;-5.78;100.00;102512.18;1692917;84;21043;-61
2022/03/17 02:33:08;;;;;;;22.07;10.67;;;;;;;-5.85;100.00;102513.50;1692832;85;21078;-62
2022/03/17 02:35:39;;;;;;;18.20;11.03;;;;;;;-5.85;100.00;102514.35;1692991;85;21082;-60
2022/03/17 02:38:07;;;;;;;19.53;10.93;;;;;;;-5.89;100.00;102510.34;1692830;85;21023;-61
2022/03/17 02:40:36;;;;;;;21.77;11.03;;;;;;;-5.89;100.00;102506.19;1692523;85;21065;-60
2022/03/17 02:43:05;;;;;;;21.43;10.83;;;;;;;-5.95;100.00;102516.31;1692401;84;21086;-61
2022/03/17 02:45:33;;;;;;;21.03;11.40;;;;;;;-5.96;100.00;102514.56;1692265;85;21019;-61
2022/03/17 02:48:04;;;;;;;21.80;11.80;;;;;;;-5.93;100.00;102513.46;1692230;84;21043;-61
2022/03/17 02:50:34;;;;;;;23.43;11.90;;;;;;;-6.01;100.00;102514.71;1692289;85;21463;-60
2022/03/17 02:53:06;;;;;;;21.57;11.60;;;;;;;-6.02;100.00;102508.84;1692329;84;21023;-61
2022/03/17 02:55:39;;;;;;;19.93;10.90;;;;;;;-6.04;100.00;102520.43;1692503;85;21006;-60
2022/03/17 02:58:08;;;;;;;24.03;11.43;;;;;;;-6.08;100.00;102518.13;1692587;84;21046;-61
2022/03/17 03:00:37;;;;;;;22.80;10.97;;;;;;;-6.14;100.00;102512.77;1692358;83;21051;-61
2022/03/17 03:03:06;;;;;;;24.90;11.63;;;;;;;-6.12;100.00;102519.13;1692487;83;21058;-61
2022/03/17 03:05:34;;;;;;;19.87;10.93;;;;;;;-6.15;100.00;102511.03;1692706;85;21050;-61
2022/03/17 03:08:02;;;;;;;21.70;11.43;;;;;;;-6.16;100.00;102511.82;1692819;85;21006;-60
2022/03/17 03:10:31;;;;;;;22.07;10.70;;;;;;;-6.22;100.00;102508.97;1692292;85;21059;-61
2022/03/17 03:13:00;;;;;;;20.90;10.87;;;;;;;-6.19;100.00;102507.02;1692897;85;21055;-61
2022/03/17 03:15:29;;;;;;;21.83;11.40;;;;;;;-6.15;100.00;102508.52;1675432;84;20991;-61
2022/03/17 03:17:57;;;;;;;20.37;11.27;;;;;;;-6.19;100.00;102504.11;1705140;84;21006;-61
2022/03/17 03:20:24;;;;;;;18.70;11.03;;;;;;;-6.22;100.00;102503.07;1704926;84;21034;-61
2022/03/17 03:22:51;;;;;;;22.17;11.67;;;;;;;-6.25;100.00;102503.38;1704794;84;21046;-61
2022/03/17 03:25:18;;;;;;;27.30;11.97;;;;;;;-6.31;100.00;102507.18;1705160;84;21045;-60
2022/03/17 03:27:47;;;;;;;24.63;11.33;;;;;;;-6.19;100.00;102511.63;1704740;84;21034;-62
2022/03/17 03:30:15;;;;;;;24.00;11.73;;;;;;;-6.19;100.00;102514.14;1704704;84;21542;-60
2022/03/17 03:32:45;;;;;;;25.30;11.53;;;;;;;-6.21;100.00;102513.59;1705136;84;21030;-60
2022/03/17 03:38:00;;;;;;;20.70;11.23;;;;;;;-6.36;100.00;102521.11;1705115;84;21034;-60
2022/03/17 03:40:27;;;;;;;22.97;11.33;;;;;;;-6.30;100.00;102520.20;1704721;84;21054;-61
2022/03/17 03:42:55;;;;;;;18.77;10.97;;;;;;;-6.25;100.00;102520.92;1679479;84;21129;-61
2022/03/17 03:45:22;;;;;;;21.03;10.87;;;;;;;-6.29;100.00;102520.66;1704408;84;21042;-61
2022/03/17 03:47:49;;;;;;;25.03;11.13;;;;;;;-6.14;100.00;102524.42;1704744;84;21515;-61
2022/03/17 03:50:16;;;;;;;22.03;10.97;;;;;;;-6.19;100.00;102522.06;1704775;84;21091;-61
2022/03/17 03:52:43;;;;;;;22.63;11.30;;;;;;;-6.17;100.00;102520.11;1704874;84;21042;-60
2022/03/17 03:55:10;;;;;;;19.13;10.73;;;;;;;-6.18;100.00;102522.16;1705046;84;21058;-60
2022/03/17 03:57:40;;;;;;;23.63;10.67;;;;;;;-6.20;100.00;102519.95;1704882;84;21046;-60
2022/03/17 04:00:22;;;;;;;21.10;10.13;;;;;;;-6.22;100.00;102521.87;1704990;84;21454;-60
2022/03/17 04:02:46;;;;;;;20.90;10.13;;;;;;;-6.25;100.00;102517.16;1704527;83;21054;-60
2022/03/17 04:05:13;;;;;;;20.30;10.33;;;;;;;-6.21;100.00;102525.72;1704968;84;21038;-61
2022/03/17 04:07:40;;;;;;;20.47;10.93;;;;;;;-6.20;100.00;102526.58;1704842;84;21093;-60
2022/03/17 04:10:08;;;;;;;22.10;10.47;;;;;;;-6.11;100.00;102537.14;1704919;84;21022;-60
2022/03/17 04:12:35;;;;;;;20.97;10.37;;;;;;;-6.15;100.00;102537.75;1705093;83;21046;-61
2022/03/17 04:15:03;;;;;;;23.00;11.13;;;;;;;-6.14;100.00;102540.34;1704762;84;21074;-61
2022/03/17 04:17:31;;;;;;;20.43;10.53;;;;;;;-6.16;100.00;102539.39;1691736;84;21606;-61
2022/03/17 04:19:59;;;;;;;21.40;10.90;;;;;;;-6.07;100.00;102540.30;1691918;84;21047;-61
2022/03/17 04:22:26;;;;;;;22.00;10.40;;;;;;;-6.04;100.00;102539.23;1692205;83;22171;-61
2022/03/17 04:24:53;;;;;;;21.27;10.67;;;;;;;-5.97;100.00;102543.80;1692059;84;21052;-60
2022/03/17 04:27:20;;;;;;;22.63;10.50;;;;;;;-5.96;100.00;102549.67;1691903;85;21030;-60
2022/03/17 04:29:47;;;;;;;16.23;9.70;;;;;;;-6.00;100.00;102552.78;1692292;85;21110;-62
2022/03/17 04:32:15;;;;;;;21.37;10.33;;;;;;;-6.01;100.00;102548.16;1692075;84;21071;-60
2022/03/17 04:34:43;;;;;;;22.00;10.37;;;;;;;-5.92;100.00;102550.28;1692336;84;21536;-61
2022/03/17 04:37:10;;;;;;;18.33;10.53;;;;;;;-5.92;100.00;102549.92;1691952;84;21042;-61
2022/03/17 04:39:37;;;;;;;20.97;10.60;;;;;;;-5.88;100.00;102551.81;1691957;85;21544;-60
2022/03/17 04:42:04;;;;;;;18.40;10.07;;;;;;;-5.88;100.00;102552.19;1692232;85;21023;-60
2022/03/17 04:44:32;;;;;;;20.10;9.90;;;;;;;-5.86;100.00;102551.52;1692187;85;20983;-61
2022/03/17 04:46:59;;;;;;;19.43;10.33;;;;;;;-5.86;100.00;102554.02;1692193;84;21039;-60
2022/03/17 04:49:26;;;;;;;18.83;10.03;;;;;;;-5.82;100.00;102547.51;1692116;85;21066;-61
2022/03/17 04:51:52;;;;;;;21.13;10.30;;;;;;;-5.66;100.00;102553.88;1692006;84;21495;-60
2022/03/17 04:54:19;;;;;;;20.27;9.90;;;;;;;-5.62;100.00;102551.13;1692305;83;21062;-62
2022/03/17 04:56:46;;;;;;;17.87;9.73;;;;;;;-5.62;100.00;102551.52;1692185;84;21153;-60
2022/03/17 04:59:13;;;;;;;20.93;10.53;;;;;;;-5.58;100.00;102550.91;1692446;84;21050;-60
2022/03/17 05:01:40;;;;;;;21.43;9.87;;;;;;;-5.66;100.00;102560.52;1692104;84;21562;-61
2022/03/17 05:04:06;;;;;;;20.87;10.20;;;;;;;-5.64;100.00;102556.45;1691987;84;21133;-61
2022/03/17 05:06:33;;;;;;;18.17;10.03;;;;;;;-5.62;100.00;102567.43;1692348;85;21039;-60
2022/03/17 05:09:00;;;;;;;18.47;9.87;;;;;;;-5.51;100.00;102568.05;1692312;83;21109;-59
2022/03/17 05:11:27;;;;;;;21.93;9.93;;;;;;;-5.50;100.00;102565.59;1692417;85;21539;-60
2022/03/17 05:13:54;;;;;;;18.97;9.70;;;;;;;-5.42;100.00;102559.74;1692144;84;21088;-61
2022/03/17 05:16:21;;;;;;;18.33;10.37;;;;;;;-5.44;100.00;102569.69;1691887;84;21000;-61
2022/03/17 05:18:48;;;;;;;21.60;10.07;;;;;;;-5.37;100.00;102573.42;1692450;84;21027;-62
2022/03/17 05:21:15;;;;;;;18.20;9.73;;;;;;;-5.27;99.76;102577.27;1692170;85;21086;-62
2022/03/17 05:23:42;;;;;;;19.30;9.40;;;;;;;-5.18;99.06;102574.41;1692391;85;21079;-62
2022/03/17 05:26:11;;;;;;;21.80;10.87;;;;;;;-5.09;98.33;102578.66;1691946;84;21551;-62
2022/03/17 05:28:39;;;;;;;19.03;8.80;;;;;;;-5.09;97.72;102580.80;1692169;85;21082;-62
2022/03/17 05:31:06;;;;;;;18.67;9.67;;;;;;;-5.08;96.81;102580.00;1692385;84;21041;-61
2022/03/17 05:33:32;;;;;;;17.60;9.20;;;;;;;-4.98;96.17;102585.13;1692104;84;21038;-62
2022/03/17 05:35:59;;;;;;;21.67;9.67;;;;;;;-4.88;94.86;102577.29;1691995;85;21078;-62
2022/03/17 05:38:26;;;;;;;20.87;9.53;;;;;;;-4.75;94.40;102580.04;1692063;85;21011;-61
2022/03/17 05:40:53;;;;;;;19.77;9.60;;;;;;;-4.70;93.88;102579.91;1692070;84;21579;-61
2022/03/17 05:43:20;;;;;;;19.57;10.17;;;;;;;-4.75;93.36;102575.41;1692347;84;21043;-62
2022/03/17 05:45:48;;;;;;;20.67;9.57;;;;;;;-4.65;93.42;102577.22;1691719;84;21035;-62
2022/03/17 05:48:15;;;;;;;18.67;9.07;;;;;;;-4.65;93.06;102580.13;1692440;84;21056;-61
2022/03/17 05:50:45;;;;;;;19.77;9.80;;;;;;;-4.59;92.98;102570.39;1692148;85;21082;-62
2022/03/17 05:53:12;;;;;;;20.97;10.17;;;;;;;-4.54;92.62;102574.39;1692357;84;21059;-60
2022/03/17 05:55:39;;;;;;;14.57;8.60;;;;;;;-4.43;92.21;102571.64;1692292;85;21083;-60
2022/03/17 05:58:07;;;;;;;19.17;9.57;;;;;;;-4.53;91.53;102566.93;1692188;85;21074;-61
2022/03/17 06:00:35;;;;;;;15.20;8.80;;;;;;;-4.45;91.36;102559.78;1695973;83;21046;-61
2022/03/17 06:03:04;;;;;;;17.80;9.33;;;;;;;-4.30;90.98;102569.73;1706977;83;21006;-61
2022/03/17 06:05:31;;;;;;;19.87;9.57;;;;;;;-4.19;90.42;102567.38;1704709;83;20999;-60
2022/03/17 06:08:00;;;;;;;17.30;9.50;;;;;;;-4.19;90.18;102573.66;1706264;83;21054;-61
2022/03/17 06:10:34;;;;;;;14.73;8.53;;;;;;;-4.18;89.83;102577.03;1707527;83;21050;-61
2022/03/17 06:13:04;;;;;;;18.70;9.53;;;;;;;-4.15;89.86;102575.94;1706814;83;20963;-60
2022/03/17 06:15:34;;;;;;;20.50;9.87;;;;;;;-4.13;89.89;102575.63;1707745;83;21449;-61
2022/03/17 06:18:04;;;;;;;16.00;8.93;;;;;;;-4.12;89.89;102586.14;1697469;83;20976;-61
2022/03/17 06:20:34;;;;;;;18.90;9.70;;;;;;;-4.05;89.81;102583.16;1699071;84;21019;-62
2022/03/17 06:23:06;;;;;;;14.67;8.37;;;;;;;-4.02;89.84;102582.03;1698294;84;21535;-61
2022/03/17 06:25:36;;;;;;;16.80;8.30;;;;;;;-3.85;89.16;102578.70;1694876;84;21020;-61
2022/03/17 06:28:08;;;;;;;14.80;8.70;;;;;;;-3.75;88.22;102575.34;1698584;84;20983;-61
2022/03/17 06:30:36;;;;;;;17.00;9.00;;;;;;;-3.71;88.41;102580.62;1698675;84;21058;-62
2022/03/17 06:33:06;;;;;;;19.63;8.43;;;;;;;-3.83;87.73;102580.03;1696668;83;21448;-60
2022/03/17 06:35:34;;;;;;;21.33;8.97;;;;;;;-3.72;87.46;102582.66;1696232;84;21000;-61
2022/03/17 06:38:05;;;;;;;15.83;9.07;;;;;;;-3.66;87.55;102566.98;1697043;83;20988;-61
2022/03/17 06:40:33;;;;;;;17.93;8.43;;;;;;;-3.45;87.66;102580.97;1699112;83;21524;-61
2022/03/17 06:43:02;;;;;;;16.87;8.40;;;;;;;-3.47;86.26;102578.41;1697930;84;21034;-62
2022/03/17 06:45:29;;;;;;;16.33;7.70;;;;;;;-3.33;85.19;102579.42;1696114;84;21456;-61
2022/03/17 06:47:56;;;;;;;15.20;7.53;;;;;;;-3.39;83.96;102572.44;1698065;83;21126;-60
2022/03/17 06:50:24;;;;;;;14.10;7.83;;;;;;;-3.28;83.62;102574.22;1698183;84;21567;-62
2022/03/17 06:52:52;;;;;;;15.73;8.17;;;;;;;-3.29;83.28;102571.22;1696249;84;21523;-61
2022/03/17 06:55:20;;;;;;;18.53;9.37;;;;;;;-3.37;83.78;102568.34;1697383;83;21496;-60
2022/03/17 06:57:49;;;;;;;16.77;8.33;;;;;;;-3.26;83.79;102569.71;1699204;84;20975;-61
2022/03/17 07:00:18;;;;;;;12.13;7.27;;;;;;;-3.16;83.21;102571.38;1696744;84;21058;-61
2022/03/17 07:02:46;;;;;;;15.57;7.60;;;;;;;-3.04;82.91;102566.52;1696648;84;21583;-60
2022/03/17 07:05:14;;;;;;;16.67;8.03;;;;;;;-2.80;82.45;102568.78;1692338;84;21015;-60
2022/03/17 07:07:44;;;;;;;19.47;8.33;;;;;;;-2.77;81.99;102563.89;1697305;84;21004;-60
2022/03/17 07:10:13;;;;;;;18.73;8.20;;;;;;;-2.82;80.99;102558.63;1696289;84;21039;-60
2022/03/17 07:12:41;;;;;;;18.17;8.83;;;;;;;-2.64;81.07;102561.09;1697552;83;21480;-60
2022/03/17 07:15:12;;;;;;;14.27;7.90;;;;;;;-2.62;80.87;102563.27;1699240;84;21548;-60
2022/03/17 07:17:41;;;;;;;14.40;7.50;;;;;;;-2.76;80.12;102563.94;1703737;83;21468;-61
2022/03/17 07:20:15;;;;;;;13.80;7.70;;;;;;;-2.70;79.73;102570.50;1705546;83;21027;-61
2022/03/17 07:22:44;;;;;;;;;;;;;;;-2.73;79.58;102570.79;1707775;83;20980;-61
2022/03/17 07:25:12;;;;;;;13.30;7.60;;;;;;;-2.63;79.17;102574.17;1706196;83;20101;-61
2022/03/17 07:27:43;;;;;;;15.23;6.97;;;;;;;-2.57;78.62;102563.50;1708757;83;21483;-60
2022/03/17 07:30:14;;;;;;;12.27;6.93;;;;;;;-2.54;77.69;102567.39;1709234;83;21050;-61
2022/03/17 07:32:41;;;;;;;15.43;7.30;;;;;;;-2.55;77.54;102577.89;1705102;83;20975;-61
2022/03/17 07:35:09;;;;;;;16.90;7.43;;;;;;;-2.46;77.60;102571.11;1713601;83;21086;-62
2022/03/17 07:37:39;;;;;;;16.53;8.37;;;;;;;-2.39;77.63;102565.91;1705763;83;20980;-62
2022/03/17 07:40:09;;;;;;;15.07;7.60;;;;;;;-2.37;77.53;102558.02;1705335;83;21007;-61
2022/03/17 07:42:37;;;;;;;18.87;7.70;;;;;;;-2.20;77.46;102551.17;1707328;83;20995;-61
2022/03/17 07:45:22;;;;;;;14.20;6.83;;;;;;;-1.96;76.92;102558.88;1708379;83;21018;-61
2022/03/17 07:48:01;;;;;;;15.90;6.10;;;;;;;-2.17;75.26;102555.06;1705603;83;21066;-61
2022/03/17 07:50:28;;;;;;;19.37;7.07;;;;;;;-1.95;76.25;102544.19;1705933;83;20999;-61
2022/03/17 07:52:54;;;;;;;12.23;6.53;;;;;;;-2.11;75.33;102556.20;1707916;83;21566;-61
2022/03/17 07:55:23;;;;;;;12.33;7.00;;;;;;;-1.96;74.14;102562.67;1705656;83;21036;-62
2022/03/17 07:57:51;;;;;;;11.23;6.50;;;;;;;-1.92;74.04;102536.34;1705580;83;20968;-61
2022/03/17 08:00:18;;;;;;;12.27;6.33;;;;;;;-1.74;73.51;102542.52;1707930;83;21003;-61
2022/03/17 08:02:46;;;;;;;14.93;7.20;;;;;;;-1.70;73.16;102529.22;1706667;83;21039;-61
2022/03/17 08:05:14;;;;;;;14.20;6.43;;;;;;;-1.53;73.40;102528.59;1705466;83;21007;-61
2022/03/17 08:07:41;;;;;;;11.27;6.43;;;;;;;-1.32;73.47;102546.22;1705107;83;20983;-60
2022/03/17 08:10:10;;;;;;;15.17;6.73;;;;;;;-1.56;72.55;102538.59;1704942;83;21039;-61
2022/03/17 08:12:38;;;;;;;11.10;6.30;;;;;;;-1.36;72.39;102543.52;1707987;83;21023;-60
2022/03/17 08:15:06;;;;;;;12.50;6.57;;;;;;;-1.28;72.11;102528.25;1705527;83;21074;-60
2022/03/17 08:17:35;;;;;;;13.23;6.53;;;;;;;-1.42;71.46;102528.99;1704280;83;21016;-61
2022/03/17 08:20:05;;;;;;;13.37;6.73;;;;;;;-1.05;72.17;102526.59;1697731;84;20988;-61
2022/03/17 08:22:34;;;;;;;13.33;6.67;;;;;;;-0.92;71.51;102531.67;1699574;84;20992;-61
2022/03/17 08:25:03;;;;;;;11.90;6.43;;;;;;;-0.96;71.11;102528.16;1697924;84;21511;-62
2022/03/17 08:27:31;;;;;;;17.60;6.53;;;;;;;-0.90;70.90;102543.97;1696541;83;21007;-62
2022/03/17 08:29:59;;;;;;;12.63;6.60;;;;;;;-0.88;70.31;102534.35;1698901;84;21003;-63
2022/03/17 08:32:26;;;;;;;10.47;6.07;;;;;;;-0.74;70.08;102526.00;1671025;85;21068;-61
2022/03/17 08:34:53;;;;;;;14.90;5.90;;;;;;;-0.65;69.93;102525.06;1693861;83;21007;-60
2022/03/17 08:37:20;;;;;;;11.00;6.00;;;;;;;-0.96;68.98;102529.84;1697515;83;20996;-61
2022/03/17 08:39:51;;;;;;;11.83;6.40;;;;;;;-0.83;69.26;102527.81;1699419;84;20999;-60
2022/03/17 08:42:18;;;;;;;16.20;6.60;;;;;;;-0.87;69.05;102514.60;1698384;84;20980;-60
2022/03/17 08:44:48;;;;;;;16.17;6.60;;;;;;;-0.78;69.48;102522.05;1696404;83;21000;-61
2022/03/17 08:50:01;;;;;;;12.15;6.30;;;;;;;-0.50;69.01;102513.75;1699477;84;21051;-60
2022/03/17 08:52:29;;;;;;;13.18;5.97;;;;;;;-0.40;68.44;102514.52;1697992;84;21042;-59
2022/03/17 08:54:56;;;;;;;12.85;6.22;;;;;;;-0.30;68.17;102509.36;1696770;84;21035;-59
2022/03/17 08:57:23;;;;;;;15.85;6.03;;;;;;;-0.12;67.70;102510.33;1696697;84;21523;-60
2022/03/17 08:59:50;;;;;;;15.25;5.83;;;;;;;-0.12;67.23;102510.33;1697878;83;21008;-60
2022/03/17 09:02:19;;;;;;;10.10;6.12;;;;;;;-0.32;66.54;102518.16;1699327;84;21011;-60
2022/03/17 09:04:46;;;;;;;11.78;5.47;;;;;;;-0.31;66.49;102514.80;1697384;84;21563;-60
2022/03/17 09:07:14;;;;;;;11.83;5.80;;;;;;;-0.29;66.68;102500.52;1696827;83;21004;-61
2022/03/17 09:09:41;;;;;;;10.05;5.33;;;;;;;-0.15;66.58;102505.19;1699602;84;21027;-59
2022/03/17 09:12:10;;;;;;;13.00;5.83;;;;;;;-0.11;66.55;102512.92;1697657;84;21051;-60
2022/03/17 09:14:40;;;;;;;10.60;5.65;;;;;;;-0.03;66.11;102520.36;1683964;84;21055;-61
2022/03/17 09:17:08;;;;;;;13.28;5.33;;;;;;;-0.09;65.61;102501.59;1698248;84;21528;-60
2022/03/17 09:19:41;;;;;;;10.82;5.58;;;;;;;0.02;65.84;102500.65;1699229;84;20975;-61
2022/03/17 09:22:08;;;;;;;9.40;5.58;;;;;;;-0.06;65.15;102491.16;1696979;84;21008;-60
2022/03/17 09:24:35;;;;;;;11.35;5.53;;;;;;;-0.11;65.19;102493.08;1696965;84;21075;-61
2022/03/17 09:27:02;;;;;;;9.30;5.12;;;;;;;0.09;64.72;102508.50;1699686;84;20996;-61
2022/03/17 09:29:29;;;;;;;15.43;6.35;;;;;;;0.00;64.51;102494.30;1697742;84;21054;-61
2022/03/17 09:31:58;;;;;;;10.20;5.25;;;;;;;0.15;65.03;102481.24;1696893;84;20984;-61
2022/03/17 09:34:25;;;;;;;9.13;5.28;;;;;;;0.49;65.20;102490.72;1696928;84;21054;-61
2022/03/17 09:36:52;;;;;;;11.15;5.53;;;;;;;0.31;63.66;102488.91;1704273;83;20976;-60
2022/03/17 09:42:06;;;;;;;12.25;5.50;;;;;;;0.61;63.36;102497.82;1711456;83;21067;-60
2022/03/17 09:44:34;;;;;;;9.78;5.37;;;;;;;0.57;63.11;102493.06;1711734;84;21025;-62
2022/03/17 09:47:03;;;;;;;9.78;5.30;;;;;;;0.59;63.12;102495.66;1711488;84;21064;-61
2022/03/17 09:49:31;;;;;;;8.95;5.55;;;;;;;0.91;63.98;102500.75;1711743;84;21031;-61
2022/03/17 09:52:02;;;;;;;10.03;5.42;;;;;;;0.81;62.97;102504.70;1711534;83;21570;-62
2022/03/17 09:54:27;;;;;;;9.23;5.33;;;;;;;1.16;63.50;102493.42;1711578;83;21067;-61
2022/03/17 09:56:54;;;;;;;10.58;4.80;;;;;;;0.89;61.66;102503.66;1703584;83;21523;-62
2022/03/17 09:59:20;;;;;;;10.25;5.22;;;;;;;0.99;62.26;102500.17;1697859;83;21087;-61
2022/03/17 10:01:48;;;;;;;10.53;5.72;;;;;;;1.05;62.03;102507.06;1697950;84;21597;-61
2022/03/17 10:04:15;;;;;;;10.60;5.58;;;;;;;0.71;62.37;102509.06;1695767;84;21074;-62
2022/03/17 10:06:43;;;;;;;9.50;5.40;;;;;;;0.78;63.30;102502.95;1697709;84;21075;-61
2022/03/17 10:09:11;;;;;;;9.23;5.33;;;;;;;0.40;62.32;102503.09;1698327;84;21531;-62
2022/03/17 10:11:39;;;;;;;10.68;5.92;;;;;;;0.39;63.17;102506.46;1695776;84;21067;-62
2022/03/17 10:14:07;;;;;;;10.10;5.08;;;;;;;0.37;63.43;102510.20;1696368;83;21002;-61
2022/03/17 10:16:37;;;;;;;17.17;5.15;;;;;;;0.53;63.57;102487.87;1706690;84;21011;-62
2022/03/17 10:19:12;;;;;;;12.37;5.58;;;;;;;0.71;63.13;102503.98;1695551;84;21082;-61
2022/03/17 10:21:41;;;;;;;9.90;5.55;;;;;;;0.54;63.22;102496.76;1684919;84;21003;-63
2022/03/17 10:24:09;;;;;;;10.75;5.20;;;;;;;0.75;63.17;102494.01;1688017;84;20976;-63
2022/03/17 10:26:52;;;;;;;14.25;5.25;;;;;;;0.98;63.07;102492.09;1685740;84;21038;-63
2022/03/17 10:29:23;;;;;;;10.45;5.65;;;;;;;0.84;63.44;102493.81;1683298;85;21071;-62
2022/03/17 10:31:59;;;;;;;11.45;5.25;;;;;;;0.65;64.29;102487.34;1683213;85;21059;-60
2022/03/17 10:34:35;;;;;;;11.83;5.95;;;;;;;0.66;64.49;102493.73;1694794;84;21051;-61
2022/03/17 10:37:18;;;;;;;9.85;5.28;;;;;;;0.64;64.51;102487.75;1698799;84;21071;-62
2022/03/17 10:39:51;;;;;;;11.28;5.55;;;;;;;0.70;64.37;102485.81;1698072;84;21019;-61
2022/03/17 10:42:26;;;;;;;13.53;5.30;;;;;;;0.74;64.50;102487.20;1696547;84;21559;-60
2022/03/17 10:44:59;;;;;;;10.93;5.33;;;;;;;0.29;64.33;102486.73;1695719;83;21043;-61
2022/03/17 10:47:42;;;;;;;10.43;5.50;;;;;;;0.43;64.15;102494.34;1696203;84;21119;-62
2022/03/17 10:50:14;;;;;;;10.55;5.42;;;;;;;0.15;64.46;102488.84;1698803;84;20995;-62
2022/03/17 10:53:00;;;;;;;14.33;6.00;;;;;;;0.42;64.64;102487.53;1697172;84;21103;-62
2022/03/17 10:55:31;;;;;;;11.12;5.28;;;;;;;0.46;64.29;102487.22;1699548;83;21043;-60
2022/03/17 10:58:14;;;;;;;9.45;5.60;;;;;;;0.37;63.95;102486.55;1696729;84;21047;-61
2022/03/17 11:00:49;;;;;;;6.78;4.87;;;;;;;0.62;64.79;102502.06;1698745;84;21047;-60
2022/03/17 11:03:21;;;;;;;13.03;5.58;;;;;;;1.10;64.66;102495.80;1698215;84;21054;-61
2022/03/17 11:05:53;;;;;;;10.05;6.20;;;;;;;0.53;64.58;102491.26;1699612;83;21007;-62
2022/03/17 11:08:21;;;;;;;10.70;5.83;;;;;;;0.62;65.12;102502.47;1708870;83;21031;-62
2022/03/17 11:10:50;;;;;;;11.90;5.22;;;;;;;0.28;64.13;102504.84;1698461;84;21086;-62
2022/03/17 11:13:19;;;;;;;10.88;5.42;;;;;;;0.29;64.93;102493.06;1694924;84;21011;-62
2022/03/17 11:16:06;;;;;;;8.63;4.70;;;;;;;0.44;65.49;102486.31;1698234;84;21488;-61
2022/03/17 11:18:38;;;;;;;9.35;4.60;;;;;;;0.70;63.50;102489.20;1697271;83;21011;-61
2022/03/17 11:21:21;;;;;;;9.75;4.75;;;;;;;0.75;63.79;102484.25;1697314;84;21488;-61
2022/03/17 11:24:04;;;;;;;9.95;4.53;;;;;;;0.73;63.97;102482.97;1698802;84;21038;-62
2022/03/17 11:26:39;;;;;;;13.22;4.58;;;;;;;0.80;63.13;102480.19;1695690;83;21112;-62
2022/03/17 11:29:10;;;;;;;9.08;4.72;;;;;;;1.09;62.93;102472.09;1696418;84;20984;-62
2022/03/17 11:32:08;;;;;;;11.08;5.17;;;;;;;1.05;62.51;102482.13;1698175;84;21074;-63